Time;durP1;ratioP1;P1;durP2;ratioP2;P2;SDS_P1;SDS_P2;PMS_P1;PMS_P2;Temp;Humidity;BMP_temperature;BMP_pressure;BME280_temperature;BME280_humidity;BME280_pressure;Samples;Min_cycle;Max_cycle;Signal;HPM_P1;HPM_P2
2022/08/17 00:00:48;;;;;;;12.57;7.57;;;19.00;99.90;;;;;;5072575;28;20044;-79
2022/08/17 00:03:20;;;;;;;15.18;8.52;;;19.00;99.90;;;;;;5055784;28;20047;-79
2022/08/17 00:05:55;;;;;;;13.90;7.93;;;18.90;99.90;;;;;;5071902;28;20032;-79
2022/08/17 00:08:28;;;;;;;17.15;8.00;;;18.90;99.90;;;;;;5054920;28;20433;-79
2022/08/17 00:10:55;;;;;;;8.63;5.55;;;18.80;99.90;;;;;;5072582;28;20127;-79
2022/08/17 00:13:28;;;;;;;10.80;5.90;;;18.70;99.90;;;;;;5072191;28;20052;-81
2022/08/17 00:16:06;;;;;;;13.55;6.40;;;18.70;99.90;;;;;;5060690;28;20090;-82
2022/08/17 00:18:32;;;;;;;9.63;5.80;;;18.70;99.90;;;;;;5071552;28;20044;-82
2022/08/17 00:20:59;;;;;;;12.38;6.32;;;18.70;99.90;;;;;;5072598;28;20071;-82
2022/08/17 00:23:26;;;;;;;10.02;5.88;;;18.60;99.90;;;;;;5072614;28;20142;-82
2022/08/17 00:25:52;;;;;;;11.73;6.82;;;18.60;99.90;;;;;;5072956;28;20040;-82
2022/08/17 00:28:19;;;;;;;12.95;7.38;;;18.50;99.90;;;;;;5070805;28;20147;-82
2022/08/17 00:30:47;;;;;;;13.35;8.18;;;18.50;99.90;;;;;;5072547;28;20093;-81
2022/08/17 00:33:16;;;;;;;11.32;7.07;;;18.50;99.90;;;;;;5072289;28;20061;-81
2022/08/17 00:35:45;;;;;;;10.40;5.82;;;18.50;99.90;;;;;;5055431;28;20514;-82
2022/08/17 00:38:12;;;;;;;7.95;5.03;;;18.40;99.90;;;;;;5055109;28;20115;-81
2022/08/17 00:40:59;;;;;;;7.32;4.60;;;18.40;99.90;;;;;;5072508;28;20081;-82
2022/08/17 00:43:27;;;;;;;12.15;7.22;;;18.40;99.90;;;;;;5072332;28;20051;-82
2022/08/17 00:45:53;;;;;;;14.93;8.35;;;18.40;99.90;;;;;;5072180;28;20078;-81
2022/08/17 00:48:20;;;;;;;13.63;7.15;;;18.40;99.90;;;;;;5054693;28;20033;-81
2022/08/17 00:50:58;;;;;;;11.52;6.75;;;18.40;99.90;;;;;;5040023;28;20061;-81
2022/08/17 00:53:27;;;;;;;12.55;6.72;;;18.40;99.90;;;;;;5076385;28;20044;-81
2022/08/17 00:55:54;;;;;;;8.77;5.38;;;18.40;99.90;;;;;;5059534;28;20109;-81
2022/08/17 00:58:21;;;;;;;7.88;4.40;;;18.40;99.90;;;;;;5075038;28;20127;-81
2022/08/17 01:00:48;;;;;;;8.20;4.97;;;18.30;99.90;;;;;;5076045;28;20037;-82
2022/08/17 01:03:24;;;;;;;10.65;6.20;;;18.40;99.90;;;;;;5059693;28;20045;-81
2022/08/17 01:05:51;;;;;;;;;;;18.30;99.90;;;;;;5076310;28;20037;-82
2022/08/17 01:08:20;;;;;;;10.00;5.90;;;18.30;99.90;;;;;;5075890;28;20011;-82
2022/08/17 01:10:49;;;;;;;8.10;5.07;;;18.30;99.90;;;;;;5074314;28;20037;-82
2022/08/17 01:13:15;;;;;;;8.27;4.97;;;18.40;99.90;;;;;;5076013;28;20059;-82
2022/08/17 01:15:58;;;;;;;8.07;5.05;;;18.40;99.90;;;;;;5074152;28;20398;-82
2022/08/17 01:18:25;;;;;;;8.43;5.03;;;18.40;99.90;;;;;;5075351;28;20040;-81
2022/08/17 01:20:53;;;;;;;9.60;5.78;;;18.40;99.90;;;;;;5075560;28;20080;-81
2022/08/17 01:23:22;;;;;;;8.25;4.65;;;18.50;99.90;;;;;;5075349;28;20036;-82
2022/08/17 01:25:56;;;;;;;8.80;5.25;;;18.50;99.90;;;;;;5073872;28;20040;-82
2022/08/17 01:28:26;;;;;;;8.90;5.05;;;18.50;99.90;;;;;;5075341;28;20043;-81
2022/08/17 01:30:53;;;;;;;8.63;5.63;;;18.50;99.90;;;;;;5075686;28;20041;-82
2022/08/17 01:33:19;;;;;;;11.52;6.35;;;18.40;99.90;;;;;;5074975;28;20546;-82
2022/08/17 01:35:45;;;;;;;13.75;8.05;;;18.40;99.90;;;;;;5075240;28;20084;-82
2022/08/17 01:38:11;;;;;;;15.55;8.43;;;18.40;99.90;;;;;;5073478;28;20498;-82
2022/08/17 01:40:41;;;;;;;10.70;6.85;;;18.40;99.90;;;;;;5058550;28;20043;-81
2022/08/17 01:43:20;;;;;;;17.10;10.25;;;18.30;99.90;;;;;;5075119;28;20047;-81
2022/08/17 01:45:50;;;;;;;14.57;7.85;;;18.40;99.90;;;;;;5075231;28;20044;-81
2022/08/17 01:48:18;;;;;;;8.18;4.85;;;18.30;99.90;;;;;;5074800;28;20137;-81
2022/08/17 01:50:45;;;;;;;8.73;5.32;;;18.30;99.90;;;;;;5041997;28;20068;-81
2022/08/17 01:53:36;;;;;;;9.32;6.07;;;18.30;99.90;;;;;;5058312;28;20063;-82
2022/08/17 01:56:07;;;;;;;8.55;5.18;;;18.30;99.90;;;;;;5074474;28;20078;-81
2022/08/17 01:58:33;;;;;;;13.23;8.18;;;18.30;99.90;;;;;;5074275;28;20044;-80
2022/08/17 02:00:59;;;;;;;11.32;7.07;;;18.30;99.90;;;;;;5074813;28;20097;-80
2022/08/17 02:03:25;;;;;;;10.40;6.35;;;18.30;99.90;;;;;;5073967;28;20076;-81
2022/08/17 02:05:52;;;;;;;10.93;6.20;;;18.30;99.90;;;;;;5074721;28;20041;-81
2022/08/17 02:08:19;;;;;;;11.95;7.30;;;18.20;99.90;;;;;;5056537;28;20029;-80
2022/08/17 02:10:46;;;;;;;12.88;7.50;;;18.20;99.90;;;;;;5057838;28;20067;-80
2022/08/17 02:13:12;;;;;;;10.68;6.30;;;18.20;99.90;;;;;;5074628;28;20051;-80
2022/08/17 02:15:39;;;;;;;8.27;5.38;;;18.30;99.90;;;;;;5058049;28;20048;-80
2022/08/17 02:18:05;;;;;;;8.23;5.30;;;18.20;99.90;;;;;;5074267;28;20123;-80
2022/08/17 02:20:31;;;;;;;5.95;3.95;;;18.20;99.90;;;;;;5073280;28;20037;-80
2022/08/17 02:23:00;;;;;;;5.72;3.78;;;18.20;99.90;;;;;;5074254;28;20041;-80
2022/08/17 02:25:27;;;;;;;7.53;4.55;;;18.20;99.90;;;;;;5074287;28;20040;-80
2022/08/17 02:27:53;;;;;;;7.32;5.00;;;18.20;99.90;;;;;;5074210;28;20448;-82
2022/08/17 02:30:19;;;;;;;6.43;4.38;;;18.20;99.90;;;;;;5072570;28;20036;-82
2022/08/17 02:32:45;;;;;;;7.90;4.50;;;18.20;99.90;;;;;;5073632;28;20048;-82
2022/08/17 02:35:12;;;;;;;7.25;4.45;;;18.20;99.90;;;;;;5073880;28;20087;-82
2022/08/17 02:37:40;;;;;;;7.03;4.32;;;18.20;99.90;;;;;;5073926;28;20052;-82
2022/08/17 02:40:07;;;;;;;6.20;4.30;;;18.20;99.90;;;;;;5055603;28;20038;-82
2022/08/17 02:42:39;;;;;;;9.57;6.00;;;18.20;99.90;;;;;;5074192;28;20047;-82
2022/08/17 02:45:14;;;;;;;9.20;6.32;;;18.10;99.90;;;;;;5074295;28;20131;-81
2022/08/17 02:47:41;;;;;;;8.10;4.67;;;18.10;99.90;;;;;;5074063;28;20041;-81
2022/08/17 02:50:09;;;;;;;8.05;4.88;;;18.10;99.90;;;;;;5073354;28;20041;-81
2022/08/17 02:52:39;;;;;;;6.28;4.32;;;18.10;99.90;;;;;;5073864;28;20056;-82
2022/08/17 02:55:08;;;;;;;5.13;3.47;;;18.10;99.90;;;;;;5057193;28;20090;-82
2022/08/17 02:57:34;;;;;;;6.07;3.92;;;18.00;99.90;;;;;;5073727;28;20040;-81
2022/08/17 02:59:59;;;;;;;5.65;3.63;;;17.90;99.90;;;;;;5073973;28;20406;-81
2022/08/17 03:02:25;;;;;;;8.75;5.82;;;17.90;99.90;;;;;;5057020;28;20044;-82
2022/08/17 03:04:51;;;;;;;6.15;4.72;;;17.80;99.90;;;;;;5073597;28;20486;-81
2022/08/17 03:07:19;;;;;;;6.05;3.95;;;17.80;99.90;;;;;;5057541;28;20040;-81
2022/08/17 03:09:44;;;;;;;7.88;5.10;;;17.80;99.90;;;;;;5057298;28;20040;-81
2022/08/17 03:12:12;;;;;;;18.27;8.55;;;17.70;99.90;;;;;;5055542;28;20490;-81
2022/08/17 03:14:39;;;;;;;11.25;7.95;;;17.70;99.90;;;;;;5073343;28;20044;-81
2022/08/17 03:17:05;;;;;;;11.85;7.35;;;17.70;99.90;;;;;;5073092;28;20145;-81
2022/08/17 03:19:31;;;;;;;9.35;5.90;;;17.70;99.90;;;;;;5073397;28;20047;-82
2022/08/17 03:21:58;;;;;;;9.20;6.18;;;17.70;99.90;;;;;;5072339;28;20036;-82
2022/08/17 03:24:24;;;;;;;7.55;4.90;;;17.70;99.90;;;;;;5057209;28;20032;-82
2022/08/17 03:26:49;;;;;;;5.75;3.97;;;17.70;99.90;;;;;;5056575;28;20506;-82
2022/08/17 03:29:18;;;;;;;5.43;3.58;;;17.70;99.90;;;;;;5073164;28;20047;-82
2022/08/17 03:31:47;;;;;;;10.38;6.78;;;17.70;99.90;;;;;;5072872;28;20483;-82
2022/08/17 03:34:15;;;;;;;10.00;6.57;;;17.70;99.90;;;;;;5070089;28;20075;-81
2022/08/17 03:36:40;;;;;;;8.05;5.70;;;17.70;99.90;;;;;;5072437;28;20048;-81
2022/08/17 03:39:06;;;;;;;6.25;4.35;;;17.70;99.90;;;;;;5071485;28;20493;-80
2022/08/17 03:41:32;;;;;;;4.85;3.22;;;17.60;99.90;;;;;;5072654;28;20421;-81
2022/08/17 03:43:58;;;;;;;5.50;3.08;;;17.60;99.90;;;;;;5054216;28;20065;-81
2022/08/17 03:57:29;;;;;;;9.57;5.90;;;17.70;99.90;;;;;;5072668;28;20040;-81
2022/08/17 03:59:55;;;;;;;6.68;4.80;;;17.70;99.90;;;;;;5072501;28;20126;-81
2022/08/17 04:02:25;;;;;;;6.95;4.10;;;17.80;99.90;;;;;;5070688;28;20068;-81
2022/08/17 04:04:52;;;;;;;7.10;5.00;;;17.70;99.90;;;;;;5055851;28;20498;-81
2022/08/17 04:07:20;;;;;;;7.38;4.53;;;17.80;99.90;;;;;;5072442;28;20040;-80
2022/08/17 04:09:46;;;;;;;5.97;4.13;;;17.80;99.90;;;;;;5039507;28;20109;-80
2022/08/17 04:12:14;;;;;;;8.63;4.75;;;17.80;99.90;;;;;;5070964;28;20055;-79
2022/08/17 04:14:40;;;;;;;10.02;6.60;;;17.80;99.90;;;;;;5055596;28;20047;-79
2022/08/17 04:17:06;;;;;;;7.60;4.95;;;17.80;99.90;;;;;;5055656;28;20036;-79
2022/08/17 04:19:32;;;;;;;12.23;7.07;;;17.90;99.90;;;;;;5072245;28;20437;-79
2022/08/17 04:21:57;;;;;;;7.18;4.80;;;17.90;99.90;;;;;;5072674;28;20044;-79
2022/08/17 04:24:24;;;;;;;8.15;4.75;;;17.90;99.90;;;;;;5071641;28;20094;-82
2022/08/17 04:26:49;;;;;;;7.75;5.20;;;17.90;99.90;;;;;;5077832;28;20071;-82
2022/08/17 04:29:15;;;;;;;6.45;4.47;;;18.00;99.90;;;;;;5062275;28;20072;-82
2022/08/17 04:31:42;;;;;;;6.85;4.60;;;18.00;99.90;;;;;;5046037;28;20044;-82
2022/08/17 04:34:08;;;;;;;6.32;4.25;;;18.00;99.90;;;;;;5077674;28;20047;-81
2022/08/17 04:36:34;;;;;;;6.00;3.50;;;18.10;99.90;;;;;;5045722;28;20076;-82
2022/08/17 04:39:01;;;;;;;7.38;4.30;;;18.10;99.90;;;;;;5062170;28;20036;-82
2022/08/17 04:44:11;;;;;;;10.65;6.63;;;18.10;99.90;;;;;;5075720;28;20037;-80
2022/08/17 04:46:37;;;;;;;33.55;10.57;;;18.10;99.90;;;;;;5078714;28;20410;-81
2022/08/17 04:49:09;;;;;;;10.93;7.10;;;18.10;99.90;;;;;;5036775;23;20053;-81
2022/08/17 04:51:43;;;;;;;11.10;6.93;;;18.10;99.90;;;;;;5037042;28;20436;-81
2022/08/17 04:54:15;;;;;;;7.72;5.68;;;18.10;99.90;;;;;;5042113;28;20123;-81
2022/08/17 04:56:41;;;;;;;7.82;4.80;;;18.10;99.90;;;;;;5042134;28;20045;-81
2022/08/17 04:59:10;;;;;;;5.95;3.92;;;18.10;99.90;;;;;;5041281;28;20128;-81
2022/08/17 05:01:38;;;;;;;4.78;3.17;;;18.10;99.90;;;;;;5025723;28;20080;-81
2022/08/17 05:04:08;;;;;;;7.07;3.88;;;18.20;99.90;;;;;;5025878;28;20041;-81
2022/08/17 05:06:34;;;;;;;8.80;5.65;;;18.20;99.90;;;;;;5041760;28;20501;-82
2022/08/17 05:09:00;;;;;;;7.25;4.75;;;18.30;99.90;;;;;;5025320;28;20094;-82
2022/08/17 05:11:28;;;;;;;6.03;3.95;;;18.30;99.90;;;;;;5041369;28;20037;-81
2022/08/17 05:13:55;;;;;;;6.40;4.07;;;18.40;99.90;;;;;;5025303;28;20129;-81
2022/08/17 05:16:22;;;;;;;6.70;4.20;;;18.40;99.90;;;;;;5038724;28;20448;-82
2022/08/17 05:18:48;;;;;;;8.55;5.18;;;18.50;99.90;;;;;;5006098;28;20367;-82
2022/08/17 05:21:15;;;;;;;9.48;5.47;;;18.60;99.90;;;;;;5028473;28;20044;-82
2022/08/17 05:23:41;;;;;;;6.60;4.40;;;18.60;99.90;;;;;;5041137;28;20479;-82
2022/08/17 05:26:07;;;;;;;7.05;4.38;;;18.60;99.90;;;;;;5041702;28;20037;-82
2022/08/17 05:28:33;;;;;;;6.78;4.03;;;18.60;99.90;;;;;;5007487;28;20086;-82
2022/08/17 05:31:01;;;;;;;6.30;3.85;;;18.70;99.90;;;;;;5025416;28;20045;-82
2022/08/17 05:33:33;;;;;;;4.72;3.10;;;18.70;99.90;;;;;;5041311;28;20145;-81
2022/08/17 05:36:01;;;;;;;7.35;4.72;;;18.80;99.90;;;;;;5042106;28;20694;-82
2022/08/17 05:38:28;;;;;;;8.73;5.50;;;18.80;99.90;;;;;;5037970;28;20045;-81
2022/08/17 05:40:55;;;;;;;8.30;5.35;;;18.80;99.90;;;;;;5021991;28;20088;-81
2022/08/17 05:43:31;;;;;;;9.60;5.88;;;18.90;99.90;;;;;;5022113;28;20037;-81
2022/08/17 05:46:09;;;;;;;8.52;5.55;;;18.90;99.90;;;;;;5038358;28;20037;-81
2022/08/17 05:48:45;;;;;;;9.77;5.30;;;18.90;99.90;;;;;;5038292;28;20433;-81
2022/08/17 05:51:28;;;;;;;9.13;4.68;;;18.90;99.90;;;;;;5022081;28;20074;-81
2022/08/17 05:54:12;;;;;;;9.27;5.45;;;19.00;99.90;;;;;;5022090;28;20100;-81
2022/08/17 05:57:06;;;;;;;11.88;7.15;;;19.00;99.90;;;;;;5034998;28;20111;-81
2022/08/17 05:59:50;;;;;;;11.13;6.28;;;19.00;99.90;;;;;;5038412;28;20052;-81
2022/08/17 06:03:04;;;;;;;15.10;7.80;;;19.10;99.90;;;;;;5038224;28;20120;-81
2022/08/17 06:05:49;;;;;;;14.90;7.22;;;19.10;99.90;;;;;;4959865;28;20045;-80
2022/08/17 06:08:49;;;;;;;10.20;6.32;;;19.20;99.90;;;;;;5018351;28;20038;-79
2022/08/17 06:11:25;;;;;;;8.68;5.15;;;19.20;99.90;;;;;;5026030;28;20135;-80
2022/08/17 06:14:19;;;;;;;10.43;5.55;;;19.30;99.90;;;;;;5038312;28;20375;-79
2022/08/17 06:16:50;;;;;;;11.23;6.28;;;19.30;99.90;;;;;;5036325;28;20033;-79
2022/08/17 06:19:30;;;;;;;10.15;6.32;;;19.40;99.90;;;;;;5038169;28;20052;-79
2022/08/17 06:21:58;;;;;;;12.02;7.25;;;19.40;99.90;;;;;;5037745;28;20095;-81
2022/08/17 06:24:47;;;;;;;11.15;7.13;;;19.40;99.90;;;;;;5021466;28;20041;-81
2022/08/17 06:27:30;;;;;;;10.05;6.07;;;19.40;99.90;;;;;;5035049;28;20037;-82
2022/08/17 06:29:59;;;;;;;10.07;5.57;;;19.50;99.90;;;;;;5001706;28;20084;-81
2022/08/17 06:32:25;;;;;;;6.40;4.25;;;19.50;99.90;;;;;;5017796;28;20483;-81
2022/08/17 06:34:51;;;;;;;12.68;7.85;;;19.60;99.90;;;;;;5034935;28;20044;-82
2022/08/17 06:37:40;;;;;;;17.20;9.02;;;19.70;99.90;;;;;;5003714;28;20179;-82
2022/08/17 06:40:25;;;;;;;13.60;8.95;;;19.70;99.90;;;;;;5037525;28;20040;-82
2022/08/17 06:43:25;;;;;;;13.00;7.75;;;19.70;99.90;;;;;;5037720;28;20401;-82
2022/08/17 06:46:17;;;;;;;23.35;11.48;;;19.70;99.90;;;;;;5037243;28;20110;-82
2022/08/17 06:48:56;;;;;;;13.85;7.75;;;19.70;99.90;;;;;;5033917;28;20061;-82
2022/08/17 06:51:36;;;;;;;13.25;8.27;;;19.70;99.90;;;;;;5024840;28;20045;-82
2022/08/17 06:54:18;;;;;;;12.13;7.28;;;19.70;99.90;;;;;;5032546;28;20548;-82
2022/08/17 06:57:05;;;;;;;10.27;5.82;;;19.60;99.90;;;;;;5026095;28;20068;-83
2022/08/17 06:59:39;;;;;;;10.05;6.47;;;19.60;99.90;;;;;;5035622;28;20048;-82
2022/08/17 07:02:07;;;;;;;13.63;8.45;;;19.60;99.90;;;;;;5036712;28;20087;-83
2022/08/17 07:04:34;;;;;;;16.90;8.80;;;19.60;99.90;;;;;;5036831;28;20475;-82
2022/08/17 07:08:10;;;;;;;11.02;6.80;;;19.60;99.90;;;;;;4987993;28;20066;-83
2022/08/17 07:10:06;;;;;;;11.05;5.93;;;19.60;99.90;;;;;;5022245;28;20057;-81
2022/08/17 07:12:38;;;;;;;11.45;5.70;;;19.70;99.90;;;;;;5020947;28;20057;-80
2022/08/17 07:15:23;;;;;;;11.60;7.78;;;19.70;99.90;;;;;;5036764;28;20541;-80
2022/08/17 07:17:49;;;;;;;10.52;7.05;;;19.70;99.90;;;;;;5036673;28;20501;-80
2022/08/17 07:20:21;;;;;;;10.93;6.75;;;19.70;99.90;;;;;;5004315;28;20493;-80
2022/08/17 07:23:05;;;;;;;15.52;8.50;;;19.70;99.90;;;;;;5036925;28;20481;-80
2022/08/17 07:25:31;;;;;;;14.00;8.20;;;19.70;99.90;;;;;;5020261;28;20120;-80
2022/08/17 07:28:01;;;;;;;11.52;7.05;;;19.70;99.90;;;;;;5036318;28;20533;-80
2022/08/17 07:30:47;;;;;;;11.68;7.03;;;19.80;99.90;;;;;;5036677;28;20071;-80
2022/08/17 07:33:28;;;;;;;11.10;6.65;;;19.80;99.90;;;;;;5035312;28;20375;-80
2022/08/17 07:35:56;;;;;;;13.27;7.22;;;19.80;99.90;;;;;;5020019;28;20045;-80
2022/08/17 07:38:28;;;;;;;12.98;6.60;;;19.90;99.90;;;;;;5035835;28;20045;-80
2022/08/17 07:40:56;;;;;;;13.85;8.50;;;19.90;99.90;;;;;;5019276;28;20039;-80
2022/08/17 07:43:38;;;;;;;12.05;7.80;;;20.00;99.90;;;;;;5035739;28;20036;-81
2022/08/17 07:49:02;;;;;;;15.10;7.90;;;20.20;99.90;;;;;;5032239;28;20053;-81
2022/08/17 07:51:38;;;;;;;9.82;5.78;;;20.30;99.90;;;;;;5035962;28;20483;-81
2022/08/17 07:54:29;;;;;;;11.52;6.85;;;20.40;99.90;;;;;;5036033;28;20044;-80
2022/08/17 07:57:13;;;;;;;10.07;6.28;;;20.50;99.90;;;;;;5007542;28;20052;-81
2022/08/17 07:59:58;;;;;;;12.40;7.43;;;20.50;99.90;;;;;;5035808;28;20044;-81
2022/08/17 08:02:30;;;;;;;22.27;10.98;;;20.50;99.90;;;;;;5036010;28;20123;-82
2022/08/17 08:05:11;;;;;;;14.48;9.27;;;20.50;99.90;;;;;;5036614;28;20052;-83
2022/08/17 08:07:49;;;;;;;13.23;8.05;;;20.50;99.90;;;;;;5036563;28;20053;-82
2022/08/17 08:10:34;;;;;;;10.88;6.45;;;20.60;99.90;;;;;;5036071;28;20483;-82
2022/08/17 08:13:12;;;;;;;12.75;7.15;;;20.60;99.90;;;;;;5032413;28;20505;-83
2022/08/17 08:15:48;;;;;;;15.02;7.85;;;20.60;99.90;;;;;;5018059;28;20036;-83
2022/08/17 08:18:29;;;;;;;11.73;7.32;;;20.70;99.90;;;;;;5033300;28;20045;-83
2022/08/17 08:20:59;;;;;;;11.55;6.88;;;20.70;99.90;;;;;;5024342;28;20073;-83
2022/08/17 08:23:35;;;;;;;10.38;6.45;;;20.70;99.90;;;;;;5033922;28;20072;-83
2022/08/17 08:26:00;;;;;;;8.77;5.88;;;20.80;99.90;;;;;;5025784;28;20037;-83
2022/08/17 08:28:45;;;;;;;19.23;10.13;;;20.80;99.90;;;;;;5015799;28;20116;-82
2022/08/17 08:31:23;;;;;;;13.27;7.30;;;20.80;99.90;;;;;;5017876;28;20551;-82
2022/08/17 08:33:58;;;;;;;13.02;7.63;;;20.80;99.90;;;;;;5018334;28;20041;-82
2022/08/17 08:36:43;;;;;;;9.83;6.03;;;20.80;99.90;;;;;;5030847;28;20055;-81
2022/08/17 08:39:26;;;;;;;10.18;6.32;;;20.80;99.90;;;;;;5018529;28;20581;-81
2022/08/17 08:41:59;;;;;;;9.65;6.38;;;20.90;99.90;;;;;;5018084;28;20091;-81
2022/08/17 08:44:35;;;;;;;11.48;7.15;;;20.90;99.90;;;;;;5034558;28;20091;-81
2022/08/17 08:47:10;;;;;;;;;;;21.00;99.90;;;;;;5036052;28;20036;-81
2022/08/17 08:49:49;;;;;;;10.65;6.68;;;20.90;99.90;;;;;;5035279;28;19927;-81
2022/08/17 08:52:45;;;;;;;13.48;7.10;;;20.90;99.90;;;;;;5019226;28;20049;-81
2022/08/17 08:55:17;;;;;;;9.32;5.55;;;20.90;99.90;;;;;;5016500;28;20513;-80
2022/08/17 08:58:07;;;;;;;11.52;6.35;;;20.90;99.90;;;;;;5035072;28;20045;-80
2022/08/17 09:00:39;;;;;;;15.48;9.02;;;20.90;99.90;;;;;;5018641;28;20131;-80
2022/08/17 09:03:13;;;;;;;15.77;9.13;;;20.90;99.90;;;;;;5035378;28;20041;-80
2022/08/17 09:05:47;;;;;;;13.10;8.18;;;20.90;99.90;;;;;;5034570;28;20099;-80
2022/08/17 09:08:25;;;;;;;15.68;8.02;;;20.90;99.90;;;;;;5031749;28;20072;-81
2022/08/17 09:11:29;;;;;;;12.90;6.70;;;21.00;99.90;;;;;;5028713;28;20052;-81
2022/08/17 09:14:02;;;;;;;12.02;7.78;;;21.20;99.90;;;;;;5029450;28;20142;-81
2022/08/17 09:16:35;;;;;;;12.82;7.63;;;21.40;99.90;;;;;;5028537;28;20075;-81
2022/08/17 09:19:17;;;;;;;12.50;7.80;;;21.70;99.90;;;;;;5029053;28;20103;-81
2022/08/17 09:22:16;;;;;;;15.55;9.63;;;22.00;99.90;;;;;;5024103;28;20104;-82
2022/08/17 09:24:59;;;;;;;17.90;10.75;;;22.30;99.90;;;;;;5014294;28;20402;-81
2022/08/17 09:27:49;;;;;;;16.52;10.40;;;22.30;99.90;;;;;;5028752;28;20037;-81
2022/08/17 09:30:15;;;;;;;14.20;8.82;;;22.20;99.90;;;;;;5029755;28;20041;-81
2022/08/17 09:32:43;;;;;;;12.32;8.07;;;22.20;99.90;;;;;;5009838;28;20072;-81
2022/08/17 09:35:19;;;;;;;14.52;9.00;;;22.00;99.90;;;;;;5032302;28;20075;-81
2022/08/17 09:38:01;;;;;;;14.98;9.93;;;21.90;99.90;;;;;;5024924;28;20040;-81
2022/08/17 09:41:02;;;;;;;9.88;6.72;;;21.90;99.90;;;;;;5010924;28;20044;-81
2022/08/17 09:43:35;;;;;;;11.60;6.68;;;22.00;99.90;;;;;;5028333;28;20045;-80
2022/08/17 09:46:15;;;;;;;9.13;5.82;;;22.10;99.90;;;;;;5031649;28;20033;-80
2022/08/17 09:48:54;;;;;;;10.05;6.10;;;22.40;99.90;;;;;;5029252;28;20057;-80
2022/08/17 09:51:34;;;;;;;11.60;7.38;;;22.60;99.90;;;;;;5032144;28;20429;-80
2022/08/17 09:54:00;;;;;;;10.98;7.47;;;22.70;99.90;;;;;;5013382;28;20487;-80
2022/08/17 09:56:30;;;;;;;10.30;6.90;;;22.70;99.90;;;;;;5010207;28;20167;-80
2022/08/17 09:59:27;;;;;;;9.50;5.95;;;22.60;99.90;;;;;;5027072;28;20121;-80
2022/08/17 10:02:17;;;;;;;9.07;6.45;;;22.70;99.90;;;;;;5050540;28;21403;-80
2022/08/17 10:05:07;;;;;;;13.10;7.55;;;23.00;99.90;;;;;;5028225;28;20045;-80
2022/08/17 10:07:42;;;;;;;11.65;7.30;;;23.70;99.90;;;;;;5032557;28;20040;-80
2022/08/17 10:10:19;;;;;;;11.35;7.10;;;24.50;99.90;;;;;;5011361;28;20471;-80
2022/08/17 10:13:09;;;;;;;13.85;7.95;;;24.90;99.90;;;;;;5033962;28;20045;-80
2022/08/17 10:15:57;;;;;;;11.32;6.15;;;25.30;99.90;;;;;;5019343;28;20049;-81
2022/08/17 10:18:54;;;;;;;7.93;5.53;;;25.60;99.90;;;;;;5029596;28;20124;-81
2022/08/17 10:27:11;;;;;;;8.60;4.97;;;25.20;99.90;;;;;;5034574;28;20455;-82
2022/08/17 10:29:59;;;;;;;8.35;5.45;;;25.00;99.90;;;;;;5009798;28;20380;-81
2022/08/17 10:32:38;;;;;;;7.20;4.15;;;24.70;99.90;;;;;;5026855;28;20045;-81
2022/08/17 10:35:24;;;;;;;6.03;3.78;;;24.60;99.90;;;;;;5029972;28;20045;-81
2022/08/17 10:38:05;;;;;;;5.68;3.90;;;24.30;99.90;;;;;;5024450;28;20072;-81
2022/08/17 10:40:34;;;;;;;7.10;4.60;;;24.00;99.90;;;;;;5012917;28;20626;-81
2022/08/17 10:43:20;;;;;;;8.52;4.13;;;23.80;99.90;;;;;;5029843;28;20041;-81
2022/08/17 10:46:00;;;;;;;5.88;4.00;;;23.70;99.90;;;;;;5033473;28;20089;-81
2022/08/17 10:48:31;;;;;;;8.23;4.82;;;23.70;99.90;;;;;;5046225;28;20395;-81
2022/08/17 10:51:35;;;;;;;6.35;4.15;;;23.60;99.90;;;;;;5009392;28;20045;-81
2022/08/17 10:54:01;;;;;;;7.28;4.63;;;23.70;99.90;;;;;;4986225;28;20048;-81
2022/08/17 10:56:45;;;;;;;6.53;4.10;;;23.70;99.90;;;;;;5028679;28;20036;-82
2022/08/17 10:59:34;;;;;;;6.45;4.30;;;23.80;99.90;;;;;;5033338;28;20120;-81
2022/08/17 11:02:24;;;;;;;6.40;4.38;;;23.90;99.90;;;;;;5025867;28;20419;-81
2022/08/17 11:04:56;;;;;;;8.18;4.70;;;23.90;99.90;;;;;;5026281;28;20718;-79
2022/08/17 11:07:25;;;;;;;6.75;3.95;;;23.90;99.90;;;;;;5009114;28;20052;-79
2022/08/17 11:10:09;;;;;;;5.50;4.15;;;24.10;99.90;;;;;;5030367;28;20136;-79
2022/08/17 11:12:48;;;;;;;8.52;5.53;;;24.30;99.90;;;;;;5025541;28;20045;-79
2022/08/17 11:15:49;;;;;;;8.60;4.57;;;24.60;99.90;;;;;;5028600;28;20052;-79
2022/08/17 11:18:49;;;;;;;5.85;3.42;;;24.70;99.90;;;;;;5029041;28;20064;-79
2022/08/17 11:21:37;;;;;;;5.47;3.53;;;24.60;99.90;;;;;;5027655;28;20045;-81
2022/08/17 11:24:19;;;;;;;7.30;3.70;;;24.60;99.90;;;;;;5029888;28;20041;-81
2022/08/17 11:27:06;;;;;;;7.20;3.63;;;24.50;99.90;;;;;;5032564;28;20566;-81
2022/08/17 11:29:46;;;;;;;5.88;3.53;;;24.70;99.90;;;;;;5029080;28;20045;-81
2022/08/17 11:32:27;;;;;;;6.72;4.05;;;24.80;99.90;;;;;;5025362;28;20566;-81
2022/08/17 11:35:05;;;;;;;7.78;3.35;;;24.90;99.90;;;;;;5027346;28;20056;-81
2022/08/17 11:37:40;;;;;;;6.78;3.70;;;25.00;99.90;;;;;;5008106;28;20059;-82
2022/08/17 11:40:24;;;;;;;6.13;3.60;;;25.10;99.90;;;;;;5020450;28;20498;-82
2022/08/17 11:42:59;;;;;;;7.00;3.70;;;25.20;99.90;;;;;;5007161;28;20048;-82
2022/08/17 11:45:39;;;;;;;6.45;4.32;;;25.50;99.90;;;;;;5022538;28;20443;-82
2022/08/17 11:54:03;;;;;;;8.43;5.25;;;25.70;99.90;;;;;;5027286;28;20045;-79
2022/08/17 11:56:39;;;;;;;8.23;4.65;;;25.80;99.90;;;;;;5006907;28;20042;-79
2022/08/17 11:59:35;;;;;;;6.63;4.45;;;26.00;99.90;;;;;;5034635;28;20044;-79
2022/08/17 12:02:03;;;;;;;7.30;4.22;;;26.00;99.90;;;;;;5025808;28;20045;-79
2022/08/17 12:04:34;;;;;;;6.57;4.25;;;26.10;99.90;;;;;;5026714;28;20041;-79
2022/08/17 12:07:15;;;;;;;5.72;3.88;;;26.20;99.90;;;;;;5025595;28;20035;-79
2022/08/17 12:09:46;;;;;;;5.72;3.72;;;26.20;99.90;;;;;;5027270;28;20110;-79
2022/08/17 12:12:18;;;;;;;5.10;3.60;;;26.30;99.90;;;;;;5025682;28;20234;-82
2022/08/17 12:14:51;;;;;;;6.68;3.83;;;26.30;99.90;;;;;;5026053;28;20455;-82
2022/08/17 12:17:22;;;;;;;5.57;4.05;;;26.10;99.90;;;;;;5009145;28;20044;-82
2022/08/17 12:19:48;;;;;;;6.68;3.75;;;26.00;99.90;;;;;;5008561;28;20373;-81
2022/08/17 12:22:17;;;;;;;9.10;4.13;;;25.80;99.90;;;;;;5008903;28;20120;-81
2022/08/17 12:25:00;;;;;;;7.28;3.75;;;25.70;99.90;;;;;;5028393;28;20124;-81
2022/08/17 12:27:32;;;;;;;5.80;3.60;;;25.60;99.90;;;;;;5028369;28;20037;-81
2022/08/17 12:30:03;;;;;;;7.60;4.85;;;25.50;99.90;;;;;;5026542;28;20125;-81
2022/08/17 12:32:34;;;;;;;8.23;5.32;;;25.30;99.90;;;;;;5016115;28;20045;-82
2022/08/17 12:35:02;;;;;;;8.23;5.03;;;25.20;99.90;;;;;;5029636;28;20049;-82
2022/08/17 12:37:32;;;;;;;6.88;4.30;;;25.20;99.90;;;;;;5011187;28;20540;-81
2022/08/17 12:40:00;;;;;;;8.75;5.22;;;25.10;99.90;;;;;;5032390;28;20044;-81
2022/08/17 12:42:30;;;;;;;9.25;6.40;;;25.10;99.90;;;;;;5016878;28;20045;-82
2022/08/17 12:44:57;;;;;;;11.25;6.10;;;24.80;99.90;;;;;;5005968;28;20041;-79
2022/08/17 12:47:23;;;;;;;7.90;5.70;;;24.70;99.90;;;;;;5008189;28;20049;-79
2022/08/17 12:49:53;;;;;;;7.82;4.72;;;24.60;99.90;;;;;;5015566;28;20099;-79
2022/08/17 12:52:27;;;;;;;10.30;5.55;;;24.60;99.90;;;;;;5018993;28;20069;-79
2022/08/17 12:55:05;;;;;;;7.50;4.32;;;24.60;99.90;;;;;;5032003;28;20486;-79
2022/08/17 12:57:37;;;;;;;10.25;7.05;;;24.70;99.90;;;;;;5015848;28;20120;-79
2022/08/17 13:00:30;;;;;;;8.95;4.90;;;24.50;99.90;;;;;;5010559;28;20080;-80
2022/08/17 13:03:30;;;;;;;8.13;4.93;;;24.60;99.90;;;;;;5014890;28;20044;-80
2022/08/17 13:06:01;;;;;;;9.70;5.43;;;24.60;99.90;;;;;;5002996;28;20491;-80
2022/08/17 13:08:34;;;;;;;8.73;5.35;;;24.50;99.90;;;;;;5014719;28;20087;-80
2022/08/17 13:11:27;;;;;;;7.65;5.28;;;24.50;99.90;;;;;;5027727;28;20044;-80
2022/08/17 13:13:55;;;;;;;10.00;5.60;;;24.30;99.90;;;;;;5023644;28;20124;-80
2022/08/17 13:16:27;;;;;;;8.55;4.47;;;24.30;99.90;;;;;;5034206;28;20120;-80
2022/08/17 13:19:11;;;;;;;6.25;4.50;;;24.30;99.90;;;;;;5037033;28;20056;-80
2022/08/17 13:21:48;;;;;;;5.47;3.90;;;24.20;99.90;;;;;;5027324;28;20207;-80
2022/08/17 13:24:20;;;;;;;7.90;4.68;;;24.10;99.90;;;;;;5008232;28;20041;-80
2022/08/17 13:26:58;;;;;;;7.95;4.63;;;24.10;99.90;;;;;;5032460;28;20101;-80
2022/08/17 13:29:35;;;;;;;6.72;4.65;;;24.00;99.90;;;;;;5031177;28;20041;-80
2022/08/17 13:32:07;;;;;;;8.10;5.03;;;24.00;99.90;;;;;;5032802;28;20083;-80
2022/08/17 13:34:39;;;;;;;7.68;5.00;;;23.90;99.90;;;;;;5030373;28;20051;-80
2022/08/17 13:37:25;;;;;;;7.75;4.75;;;23.70;99.90;;;;;;5030035;28;20033;-80
2022/08/17 13:40:11;;;;;;;10.75;6.22;;;23.60;99.90;;;;;;5028910;28;20080;-80
2022/08/17 13:42:49;;;;;;;7.40;4.28;;;23.50;99.90;;;;;;4994127;28;20037;-80
2022/08/17 13:45:32;;;;;;;8.75;5.22;;;23.40;99.90;;;;;;5032934;28;20116;-80
2022/08/17 13:48:08;;;;;;;7.15;4.13;;;23.40;99.90;;;;;;5030612;28;20423;-80